Time;durP1;ratioP1;P1;durP2;ratioP2;P2;SDS_P1;SDS_P2;PMS_P1;PMS_P2;Temp;Humidity;BMP_temperature;BMP_pressure;BME280_temperature;BME280_humidity;BME280_pressure;Samples;Min_cycle;Max_cycle;Signal;HPM_P1;HPM_P2
2023/01/19 00:00:10;;;;;;;42.95;9.00;;;;;;;9.01;77.88;99934.38;5014601;28;20029;-89
2023/01/19 00:02:36;;;;;;;9.55;6.05;;;;;;;9.07;76.75;99934.03;5014992;28;20025;-90
2023/01/19 00:05:03;;;;;;;9.77;5.60;;;;;;;9.03;76.16;99922.22;5014950;28;20029;-89
2023/01/19 00:07:29;;;;;;;11.73;6.13;;;;;;;8.98;75.90;99916.47;4998556;28;20132;-90
2023/01/19 00:09:55;;;;;;;11.82;5.97;;;;;;;9.04;76.84;99929.03;5014705;28;20499;-90
2023/01/19 00:12:20;;;;;;;10.35;5.03;;;;;;;9.01;76.21;99929.19;5014894;28;20032;-89
2023/01/19 00:14:45;;;;;;;8.50;5.45;;;;;;;8.78;77.24;99914.94;4998225;28;20029;-90
2023/01/19 00:17:11;;;;;;;11.27;4.72;;;;;;;8.88;77.57;99926.44;4997921;28;20581;-90
2023/01/19 00:19:36;;;;;;;7.78;4.10;;;;;;;9.01;77.32;99942.09;5030949;28;20025;-90
2023/01/19 00:22:04;;;;;;;7.63;4.85;;;;;;;8.87;77.10;99911.88;5014860;28;20056;-89
2023/01/19 00:24:30;;;;;;;7.13;3.83;;;;;;;8.89;77.68;99920.38;5014551;28;20503;-89
2023/01/19 00:26:56;;;;;;;11.23;5.15;;;;;;;8.98;77.46;99929.38;4998438;28;20032;-90
2023/01/19 00:29:22;;;;;;;6.93;3.95;;;;;;;8.93;77.30;99941.66;5014458;28;20034;-90
2023/01/19 00:31:48;;;;;;;6.78;3.75;;;;;;;8.81;77.57;99931.09;5014525;28;20036;-90
2023/01/19 00:34:14;;;;;;;7.80;3.97;;;;;;;8.85;77.62;99949.84;5014058;28;20034;-90
2023/01/19 00:36:39;;;;;;;6.13;3.90;;;;;;;8.81;78.02;99954.31;5014313;28;20061;-89
2023/01/19 00:39:06;;;;;;;9.00;3.00;;;;;;;8.84;78.03;99969.59;5030527;28;20132;-88
2023/01/19 00:44:16;;;;;;;4.05;2.30;;;;;;;8.84;78.22;99961.03;5016901;28;20527;-89
2023/01/19 00:46:41;;;;;;;3.38;2.63;;;;;;;8.73;78.61;99955.59;5013698;28;20029;-89
2023/01/19 00:49:06;;;;;;;9.18;2.88;;;;;;;8.75;78.28;99967.53;5014462;28;20424;-89
2023/01/19 00:51:32;;;;;;;2.55;2.05;;;;;;;8.78;77.97;99975.09;4997741;28;20029;-89
2023/01/19 00:54:03;;;;;;;9.20;3.40;;;;;;;8.66;78.08;99949.97;5013565;28;20515;-91
2023/01/19 00:56:32;;;;;;;5.28;2.90;;;;;;;8.70;78.09;99973.81;5015511;28;20535;-89
2023/01/19 00:58:58;;;;;;;3.67;2.88;;;;;;;8.60;77.99;99952.84;4997499;28;20151;-89
2023/01/19 01:01:24;;;;;;;3.40;2.67;;;;;;;8.63;78.57;99965.56;5013855;28;20053;-89
2023/01/19 01:03:49;;;;;;;4.05;2.70;;;;;;;8.61;78.16;99957.06;4997568;28;20030;-89
2023/01/19 01:06:33;;;;;;;6.68;2.78;;;;;;;8.65;77.86;99994.69;4997398;28;20037;-89
2023/01/19 01:08:58;;;;;;;2.95;1.88;;;;;;;8.58;78.27;99967.56;5030455;28;20108;-89
2023/01/19 01:11:24;;;;;;;7.32;3.35;;;;;;;8.67;77.86;99982.56;5013875;28;20026;-90
2023/01/19 01:13:49;;;;;;;6.80;3.47;;;;;;;8.52;78.33;99967.84;4997404;28;20140;-90
2023/01/19 01:16:15;;;;;;;5.20;3.13;;;;;;;8.52;78.38;99971.28;5013319;28;20519;-90
2023/01/19 01:18:41;;;;;;;3.22;2.15;;;;;;;8.56;77.84;99974.53;4997229;28;20515;-90
2023/01/19 01:21:07;;;;;;;4.65;2.10;;;;;;;8.54;78.09;99941.09;4997195;28;20029;-89
2023/01/19 01:23:33;;;;;;;4.45;2.88;;;;;;;8.63;78.07;99966.41;4997133;28;20120;-89
2023/01/19 01:25:59;;;;;;;36.63;3.47;;;;;;;8.48;78.74;99966.34;4997359;28;20172;-89
2023/01/19 01:28:24;;;;;;;3.20;2.25;;;;;;;8.50;78.77;99972.25;5013454;28;20030;-89
2023/01/19 01:30:54;;;;;;;3.10;1.90;;;;;;;8.54;78.08;99950.56;5012967;28;20160;-89
2023/01/19 01:33:19;;;;;;;15.93;4.97;;;;;;;8.54;77.89;99950.56;4997215;28;20026;-90
2023/01/19 01:35:45;;;;;;;8.48;3.53;;;;;;;8.41;77.99;99940.06;4996543;28;20040;-89
2023/01/19 01:38:10;;;;;;;10.13;3.70;;;;;;;8.22;78.60;99934.97;4997079;28;20032;-89
2023/01/19 01:40:39;;;;;;;8.40;2.65;;;;;;;8.49;78.60;99952.56;5013227;28;20459;-89
2023/01/19 01:43:14;;;;;;;4.38;2.58;;;;;;;8.43;78.49;99950.28;5013471;28;20025;-90
2023/01/19 01:45:40;;;;;;;5.45;3.65;;;;;;;8.44;78.00;99944.22;4997806;28;20025;-89
2023/01/19 01:48:26;;;;;;;7.70;2.85;;;;;;;8.44;78.66;99937.31;5013234;28;20514;-91
2023/01/19 01:53:48;;;;;;;3.38;2.95;;;;;;;8.32;78.50;99945.63;5016179;28;20073;-89
2023/01/19 01:56:17;;;;;;;3.58;2.10;;;;;;;8.26;78.67;99931.34;4997008;28;20025;-90
2023/01/19 01:58:42;;;;;;;5.65;3.92;;;;;;;8.27;78.15;99935.56;4996939;28;20025;-89
2023/01/19 02:03:52;;;;;;;4.60;2.50;;;;;;;8.02;78.48;99928.22;5015573;28;20499;-90
2023/01/19 02:06:18;;;;;;;6.40;3.80;;;;;;;8.08;79.01;99942.56;4996530;28;20037;-89
2023/01/19 02:14:20;;;;;;;4.80;2.53;;;;;;;7.94;79.54;99924.34;5015297;28;20082;-89
2023/01/19 02:16:45;;;;;;;6.75;3.95;;;;;;;7.86;79.31;99922.16;5013541;28;20471;-90
2023/01/19 02:19:14;;;;;;;7.65;2.47;;;;;;;7.72;79.59;99906.53;5012880;28;20434;-89
2023/01/19 02:21:58;;;;;;;7.13;3.22;;;;;;;7.94;79.36;99935.50;4996935;28;20033;-89
2023/01/19 02:24:23;;;;;;;5.50;2.50;;;;;;;7.58;78.15;99881.47;5014508;28;20053;-90
2023/01/19 02:26:49;;;;;;;8.55;4.57;;;;;;;7.69;79.34;99924.72;4996313;28;20076;-90
2023/01/19 02:29:19;;;;;;;3.35;2.35;;;;;;;7.63;79.46;99892.38;5013056;28;20079;-89
2023/01/19 02:31:44;;;;;;;6.65;4.72;;;;;;;7.73;78.83;99911.63;5013123;28;20515;-90
2023/01/19 02:34:11;;;;;;;8.02;3.85;;;;;;;7.66;79.30;99893.97;4996671;28;20053;-89
2023/01/19 02:36:47;;;;;;;4.22;3.33;;;;;;;7.59;79.42;99883.16;5012819;28;20040;-90
2023/01/19 02:39:13;;;;;;;6.88;4.40;;;;;;;7.70;77.78;99906.63;5014350;28;20029;-90
2023/01/19 02:41:43;;;;;;;7.15;4.03;;;;;;;7.66;78.62;99901.69;5012749;28;20083;-89
2023/01/19 02:44:09;;;;;;;4.28;2.97;;;;;;;7.41;78.63;99868.59;4996550;28;20120;-89
2023/01/19 02:46:34;;;;;;;6.22;3.58;;;;;;;7.58;78.92;99916.69;4998358;28;20116;-89
2023/01/19 02:49:00;;;;;;;10.60;4.25;;;;;;;7.47;79.31;99899.16;5000064;28;20071;-89
2023/01/19 02:51:26;;;;;;;5.45;3.88;;;;;;;7.58;79.71;99916.69;4999858;28;20059;-89
2023/01/19 02:54:03;;;;;;;6.90;4.95;;;;;;;7.27;79.49;99861.50;4999906;28;20049;-90
2023/01/19 02:56:40;;;;;;;5.78;3.38;;;;;;;7.56;78.62;99921.88;5033689;28;20022;-88
2023/01/19 02:59:31;;;;;;;6.47;3.97;;;;;;;7.47;78.25;99925.75;5033488;28;20032;-92
2023/01/19 03:02:00;;;;;;;11.15;5.63;;;;;;;7.43;79.17;99943.97;5032661;28;20036;-90
2023/01/19 03:04:27;;;;;;;5.28;4.55;;;;;;;7.37;79.70;99944.25;5033620;28;20030;-89
2023/01/19 03:07:01;;;;;;;17.38;3.50;;;;;;;7.06;80.21;99893.38;5032482;28;20488;-89
2023/01/19 03:09:26;;;;;;;8.75;3.05;;;;;;;7.40;79.92;99949.25;5016736;28;20037;-89
2023/01/19 03:12:20;;;;;;;5.38;3.38;;;;;;;7.29;79.78;99936.91;5033351;28;20029;-90
2023/01/19 03:14:45;;;;;;;4.25;2.15;;;;;;;7.03;79.13;99890.97;5018001;28;20503;-89
2023/01/19 03:17:11;;;;;;;2.88;2.03;;;;;;;7.17;79.08;99912.56;4999310;28;20053;-89
2023/01/19 03:19:40;;;;;;;2.30;1.88;;;;;;;7.26;79.23;99926.72;5015692;28;20033;-89
2023/01/19 03:22:12;;;;;;;4.53;2.70;;;;;;;7.27;78.59;99940.44;4999594;28;20025;-90
2023/01/19 03:24:39;;;;;;;6.55;2.15;;;;;;;7.22;78.63;99943.22;5016572;28;20068;-89
2023/01/19 03:27:14;;;;;;;3.22;2.42;;;;;;;7.05;79.03;99928.56;4999156;28;20112;-89
2023/01/19 03:29:41;;;;;;;6.20;2.95;;;;;;;7.02;78.95;99925.28;5016416;28;20040;-89
2023/01/19 03:32:09;;;;;;;3.85;2.83;;;;;;;7.01;79.34;99919.31;4999244;28;20041;-89
2023/01/19 03:34:35;;;;;;;4.25;3.22;;;;;;;6.91;79.05;99900.06;4999319;28;20032;-88
2023/01/19 03:37:02;;;;;;;4.55;2.33;;;;;;;6.98;79.05;99905.75;5015748;28;20021;-89
2023/01/19 03:39:27;;;;;;;4.05;2.15;;;;;;;7.02;79.20;99923.56;5015278;28;20026;-91
2023/01/19 03:42:02;;;;;;;4.38;2.88;;;;;;;6.88;79.62;99902.75;4998776;28;20087;-90
2023/01/19 03:44:28;;;;;;;5.88;4.03;;;;;;;6.95;79.25;99917.00;4998863;28;20116;-89
2023/01/19 03:46:54;;;;;;;4.60;2.67;;;;;;;6.64;79.09;99860.16;5015357;28;20041;-89
2023/01/19 03:49:19;;;;;;;16.35;5.05;;;;;;;6.85;79.05;99882.34;5015537;28;20033;-90
2023/01/19 03:51:45;;;;;;;11.45;4.60;;;;;;;6.84;79.76;99884.06;4998974;28;20045;-89
2023/01/19 03:54:10;;;;;;;10.52;4.65;;;;;;;6.94;79.56;99911.94;4998545;28;20439;-89
2023/01/19 03:56:35;;;;;;;6.00;3.38;;;;;;;6.94;79.30;99920.50;5031667;28;20095;-88
2023/01/19 03:59:01;;;;;;;3.22;2.40;;;;;;;6.57;79.95;99863.00;4998431;28;20529;-89
2023/01/19 04:01:27;;;;;;;3.50;2.85;;;;;;;6.92;80.09;99921.47;5015365;28;20061;-90
2023/01/19 04:03:52;;;;;;;5.93;3.17;;;;;;;6.94;80.02;99923.06;5015189;28;20428;-91
2023/01/19 04:06:18;;;;;;;7.45;4.00;;;;;;;7.23;82.31;99926.03;5015706;28;20040;-94
2023/01/19 04:08:44;;;;;;;6.93;4.28;;;;;;;7.20;79.39;99921.88;5015326;28;20033;-94
2023/01/19 04:11:10;;;;;;;5.30;2.88;;;;;;;7.34;79.35;99940.06;5015833;28;20025;-93
2023/01/19 04:13:35;;;;;;;3.95;3.15;;;;;;;7.32;79.22;99928.19;5015663;28;20072;-93
2023/01/19 04:16:01;;;;;;;11.55;4.97;;;;;;;7.36;78.91;99933.13;4999013;28;20087;-93
2023/01/19 04:18:27;;;;;;;5.90;4.32;;;;;;;7.48;78.03;99927.41;5015578;28;20033;-93
2023/01/19 04:20:53;;;;;;;7.55;4.45;;;;;;;7.68;78.29;99926.47;5031976;28;20032;-94
2023/01/19 04:23:19;;;;;;;3.13;2.03;;;;;;;7.79;77.93;99935.41;5014952;28;20033;-94
2023/01/19 04:25:44;;;;;;;5.38;2.63;;;;;;;7.68;76.72;99934.19;5015842;28;20108;-94
2023/01/19 04:28:10;;;;;;;3.75;2.72;;;;;;;7.65;76.67;99942.03;5031915;28;20029;-95
2023/01/19 04:30:36;;;;;;;3.55;2.90;;;;;;;7.79;76.04;99943.13;5032030;28;20946;-92
2023/01/19 04:33:01;;;;;;;7.70;2.92;;;;;;;7.81;75.33;99933.59;5013483;28;20518;-92
2023/01/19 04:35:27;;;;;;;6.45;2.80;;;;;;;7.50;76.13;99919.63;5013660;28;20029;-90
2023/01/19 04:37:52;;;;;;;3.90;1.63;;;;;;;7.53;75.92;99945.19;5030969;28;20033;-90
2023/01/19 04:40:18;;;;;;;10.27;4.72;;;;;;;7.36;76.20;99934.84;5014361;28;20065;-89
2023/01/19 04:42:44;;;;;;;10.30;3.33;;;;;;;7.27;77.23;99927.56;5014305;28;20505;-90
2023/01/19 04:45:11;;;;;;;4.18;3.38;;;;;;;7.13;77.29;99905.06;5030584;28;20033;-89
2023/01/19 04:47:36;;;;;;;9.38;5.57;;;;;;;7.22;77.28;99924.38;5013593;28;20041;-88
2023/01/19 04:50:04;;;;;;;10.48;5.53;;;;;;;7.08;77.28;99923.28;5013827;28;20407;-87
2023/01/19 04:52:36;;;;;;;5.82;4.15;;;;;;;6.98;77.49;99919.47;5030109;28;20025;-87
2023/01/19 04:55:02;;;;;;;8.65;4.70;;;;;;;6.97;77.76;99929.78;5014128;28;20127;-88
2023/01/19 04:57:29;;;;;;;11.73;7.10;;;;;;;6.89;77.96;99907.03;5013544;28;20026;-87
2023/01/19 04:59:55;;;;;;;9.90;5.07;;;;;;;6.95;77.87;99924.72;5013253;28;20553;-86
2023/01/19 05:02:21;;;;;;;14.35;5.65;;;;;;;6.77;78.91;99908.38;5013548;28;20075;-87
2023/01/19 05:04:47;;;;;;;8.75;5.30;;;;;;;6.80;78.92;99922.84;5014494;28;20486;-88
2023/01/19 05:07:13;;;;;;;8.57;5.75;;;;;;;6.80;78.84;99918.56;4993186;28;20079;-90
2023/01/19 05:09:38;;;;;;;13.88;5.22;;;;;;;6.77;79.24;99923.81;5009884;28;20473;-90
2023/01/19 05:12:04;;;;;;;20.08;11.05;;;;;;;6.69;79.37;99901.94;5018968;28;20034;-90
2023/01/19 05:14:30;;;;;;;8.57;5.78;;;;;;;6.78;79.42;99937.50;4977323;28;20037;-89
2023/01/19 05:16:55;;;;;;;9.70;6.10;;;;;;;6.66;78.94;99925.19;4993339;28;20121;-89
2023/01/19 05:19:21;;;;;;;10.95;6.32;;;;;;;6.61;79.35;99931.38;4993762;28;20029;-90
2023/01/19 05:21:46;;;;;;;9.00;5.20;;;;;;;6.65;79.50;99939.78;5009563;28;20041;-90
2023/01/19 05:24:12;;;;;;;9.95;6.80;;;;;;;6.61;79.74;99923.66;4991886;28;20034;-90
2023/01/19 05:26:37;;;;;;;11.27;7.38;;;;;;;6.63;79.26;99931.31;4977244;28;20018;-89
2023/01/19 05:29:03;;;;;;;8.93;5.88;;;;;;;6.67;78.84;99926.84;5003379;28;20029;-93
2023/01/19 05:31:28;;;;;;;11.18;6.13;;;;;;;6.67;79.38;99948.25;5013467;28;20462;-94
2023/01/19 05:33:54;;;;;;;16.30;9.85;;;;;;;6.66;79.63;99958.59;5013332;28;20029;-95
2023/01/19 05:36:19;;;;;;;14.82;8.95;;;;;;;6.40;79.90;99916.06;4996304;28;20484;-87
2023/01/19 05:38:45;;;;;;;39.53;12.45;;;;;;;6.51;80.69;99934.41;4996230;28;20034;-86
2023/01/19 05:41:10;;;;;;;10.82;8.55;;;;;;;6.55;80.31;99943.66;5030098;28;20040;-93
2023/01/19 05:43:36;;;;;;;5.20;4.13;;;;;;;6.65;80.37;99952.63;5014112;28;20026;-92
2023/01/19 05:46:03;;;;;;;10.40;6.15;;;;;;;6.55;81.62;99933.38;4996614;28;20056;-89
2023/01/19 05:48:29;;;;;;;14.32;7.53;;;;;;;6.67;81.52;99950.00;4997886;28;20069;-86
2023/01/19 05:50:58;;;;;;;8.90;4.65;;;;;;;6.73;81.29;99947.16;5007903;28;20079;-88
2023/01/19 05:53:24;;;;;;;6.60;4.55;;;;;;;6.74;81.02;99954.81;5010936;28;20042;-92
2023/01/19 05:55:50;;;;;;;9.95;5.72;;;;;;;6.74;80.66;99953.97;5027227;28;20053;-87
2023/01/19 05:58:15;;;;;;;9.50;6.93;;;;;;;6.53;81.09;99920.59;5010928;28;20030;-86
2023/01/19 06:00:41;;;;;;;12.70;7.15;;;;;;;6.71;81.65;99941.25;5033305;28;20040;-92
2023/01/19 06:03:06;;;;;;;9.55;6.05;;;;;;;6.81;81.76;99963.91;5009795;28;20038;-89
2023/01/19 06:05:32;;;;;;;6.38;4.57;;;;;;;6.79;81.94;99936.63;4985524;28;20501;-90
2023/01/19 06:07:58;;;;;;;9.63;5.57;;;;;;;6.80;81.86;99935.72;5012957;28;20029;-90
2023/01/19 06:10:23;;;;;;;6.95;4.28;;;;;;;6.78;81.89;99934.91;4993491;28;20540;-90
2023/01/19 06:12:50;;;;;;;9.65;4.15;;;;;;;6.81;82.19;99945.09;4991254;28;20033;-91
2023/01/19 06:15:16;;;;;;;7.45;4.18;;;;;;;6.76;82.51;99926.44;5008843;28;20500;-88
2023/01/19 06:17:41;;;;;;;5.97;3.78;;;;;;;6.86;82.88;99930.28;5027632;28;20140;-87
2023/01/19 06:20:08;;;;;;;4.43;3.38;;;;;;;6.93;82.74;99941.97;4996045;28;20083;-91
2023/01/19 06:22:33;;;;;;;6.55;4.75;;;;;;;6.99;81.36;99954.56;5021210;28;20034;-91
2023/01/19 06:24:59;;;;;;;12.98;4.00;;;;;;;7.05;81.48;99943.97;4991412;28;20033;-89
2023/01/19 06:27:24;;;;;;;4.53;2.38;;;;;;;7.07;81.93;99944.75;5012498;28;20025;-91
2023/01/19 06:29:50;;;;;;;8.63;4.65;;;;;;;7.10;82.06;99951.50;5017948;28;20034;-92
2023/01/19 06:32:16;;;;;;;7.35;4.43;;;;;;;7.16;82.15;99962.34;5001083;28;20145;-85
2023/01/19 06:34:42;;;;;;;9.00;4.53;;;;;;;7.22;81.66;99970.69;5047155;28;20025;-92
2023/01/19 06:37:10;;;;;;;9.38;5.85;;;;;;;7.26;81.48;99967.06;5021772;28;20036;-94
2023/01/19 06:39:36;;;;;;;7.25;5.07;;;;;;;7.22;81.17;99973.25;5033810;28;20104;-86
2023/01/19 06:42:02;;;;;;;6.32;4.78;;;;;;;7.30;80.89;99989.19;5033347;28;20029;-92
2023/01/19 06:44:28;;;;;;;8.73;4.40;;;;;;;7.41;81.27;99966.38;5010523;28;20041;-92
2023/01/19 06:46:53;;;;;;;7.85;4.40;;;;;;;7.36;81.18;99960.59;5000361;28;20025;-86
2023/01/19 06:49:19;;;;;;;6.53;5.30;;;;;;;7.39;81.31;99970.75;4995066;28;20056;-95
2023/01/19 06:54:28;;;;;;;6.45;3.67;;;;;;;7.39;81.28;99978.47;5037177;28;20171;-94
2023/01/19 06:56:54;;;;;;;6.32;4.47;;;;;;;7.38;81.02;99969.09;5033475;28;20037;-90
2023/01/19 06:59:19;;;;;;;18.05;5.55;;;;;;;7.39;81.90;99963.03;5015640;28;20022;-90
2023/01/19 07:01:45;;;;;;;10.65;4.85;;;;;;;7.43;81.56;99985.16;5014615;28;20057;-90
2023/01/19 07:04:13;;;;;;;7.00;5.60;;;;;;;7.35;81.44;99982.91;5009364;28;20045;-87
2023/01/19 07:06:38;;;;;;;13.63;8.27;;;;;;;7.36;81.42;99978.59;5027986;28;20095;-90
2023/01/19 07:09:06;;;;;;;16.27;9.77;;;;;;;7.52;81.44;99953.84;5004293;28;20069;-90
2023/01/19 07:11:32;;;;;;;13.10;6.43;;;;;;;7.60;81.42;99982.63;5005009;28;20033;-90
2023/01/19 07:13:58;;;;;;;14.23;7.20;;;;;;;7.65;81.55;99974.66;5003636;28;20120;-87
2023/01/19 07:16:23;;;;;;;12.77;6.78;;;;;;;7.70;81.97;99971.00;5015536;28;20088;-93
2023/01/19 07:18:49;;;;;;;13.18;6.90;;;;;;;7.77;81.51;99976.69;5015147;28;20021;-87
2023/01/19 07:21:14;;;;;;;10.32;7.28;;;;;;;7.93;81.13;99997.38;5025354;28;20045;-88
2023/01/19 07:23:40;;;;;;;10.80;6.95;;;;;;;7.97;81.37;99992.03;5014307;28;20032;-88
2023/01/19 07:26:05;;;;;;;9.93;6.35;;;;;;;8.08;80.66;99998.41;5014670;28;20037;-88
2023/01/19 07:28:31;;;;;;;16.70;4.97;;;;;;;8.15;81.14;99990.28;5016783;28;20034;-85
2023/01/19 07:30:57;;;;;;;17.05;7.28;;;;;;;8.22;80.86;99993.38;5012876;28;20041;-90
2023/01/19 07:33:23;;;;;;;13.80;5.43;;;;;;;8.43;82.71;100002.66;5012160;28;20121;-92
2023/01/19 07:35:49;;;;;;;13.40;6.60;;;;;;;8.57;80.97;99978.78;5006944;28;20119;-88
2023/01/19 07:38:16;;;;;;;9.98;6.05;;;;;;;8.69;80.52;100003.09;5004691;28;20086;-94
2023/01/19 07:40:42;;;;;;;8.68;6.20;;;;;;;8.74;81.25;99993.38;5032079;28;20028;-87
2023/01/19 07:43:07;;;;;;;11.70;5.70;;;;;;;8.79;80.35;99969.03;5030165;28;20485;-80
2023/01/19 07:45:34;;;;;;;23.75;8.20;;;;;;;8.89;79.65;99983.13;5003594;28;20040;-88
2023/01/19 07:47:59;;;;;;;16.52;10.32;;;;;;;9.04;79.48;100004.69;4996255;28;20046;-94
2023/01/19 07:50:26;;;;;;;13.23;6.65;;;;;;;9.22;78.96;100012.38;4980233;28;20035;-88
2023/01/19 07:52:52;;;;;;;17.48;9.15;;;;;;;9.23;83.59;99999.38;4984349;28;20037;-80
2023/01/19 07:55:19;;;;;;;11.95;7.95;;;;;;;9.93;79.29;100029.16;4991471;28;20037;-95
2023/01/19 07:57:48;;;;;;;13.13;7.40;;;;;;;10.24;78.49;100030.03;5013411;28;20026;-82
2023/01/19 08:00:13;;;;;;;14.30;7.07;;;;;;;10.37;74.41;100037.91;5009738;28;20033;-85
2023/01/19 08:02:40;;;;;;;10.88;7.63;;;;;;;10.39;73.87;100042.06;4993523;28;20061;-89
2023/01/19 08:05:05;;;;;;;10.88;7.13;;;;;;;10.40;73.70;100054.06;4978068;28;20061;-85
2023/01/19 08:07:32;;;;;;;10.15;6.60;;;;;;;9.95;74.15;99990.31;4993864;28;20060;-91
2023/01/19 08:09:57;;;;;;;15.15;6.72;;;;;;;10.43;78.76;100032.41;4995239;28;20044;-94
2023/01/19 08:12:23;;;;;;;14.93;7.35;;;;;;;10.55;75.27;100035.09;4989725;28;20026;-83
2023/01/19 08:14:49;;;;;;;11.52;6.78;;;;;;;10.65;76.06;100029.41;5010756;28;20500;-91
2023/01/19 08:17:14;;;;;;;9.68;5.53;;;;;;;10.65;73.70;100026.81;4993107;28;20046;-92
2023/01/19 08:19:41;;;;;;;12.23;6.65;;;;;;;10.29;74.55;100010.75;4992364;28;20060;-92
2023/01/19 08:22:07;;;;;;;13.13;5.43;;;;;;;10.49;74.44;100042.38;4995567;28;20026;-89
2023/01/19 08:24:32;;;;;;;18.25;5.65;;;;;;;10.40;75.12;100033.38;4978618;28;20049;-87
2023/01/19 08:27:01;;;;;;;20.48;5.18;;;;;;;10.60;75.41;100055.50;4993323;28;20527;-80
2023/01/19 08:29:29;;;;;;;21.27;5.55;;;;;;;10.71;75.60;100049.72;5008676;28;20113;-81
2023/01/19 08:31:57;;;;;;;15.02;5.95;;;;;;;10.45;76.37;100021.03;4992866;28;20033;-85
2023/01/19 08:34:23;;;;;;;22.60;4.45;;;;;;;10.73;75.78;100015.09;4993613;28;20026;-89
2023/01/19 08:36:48;;;;;;;20.95;6.28;;;;;;;10.76;75.76;100042.53;4977952;28;20029;-83
2023/01/19 08:39:13;;;;;;;10.48;3.92;;;;;;;10.75;75.96;100041.69;4993420;28;20022;-88
2023/01/19 08:41:39;;;;;;;11.57;5.97;;;;;;;10.73;76.27;100051.31;4993679;28;20157;-91
2023/01/19 08:44:04;;;;;;;9.70;4.10;;;;;;;10.73;76.40;100046.13;4991546;28;20076;-85
2023/01/19 08:46:30;;;;;;;7.22;4.57;;;;;;;10.68;75.92;100006.75;5007780;28;20061;-85
2023/01/19 08:48:56;;;;;;;7.95;3.85;;;;;;;10.92;76.90;100020.00;5007653;28;20049;-86
2023/01/19 08:51:21;;;;;;;14.60;4.43;;;;;;;10.98;77.11;100044.66;5011327;28;20032;-87
2023/01/19 08:53:47;;;;;;;13.52;7.05;;;;;;;11.02;76.16;100047.00;5007690;28;20120;-81
2023/01/19 08:56:13;;;;;;;9.82;5.75;;;;;;;11.12;76.34;100063.66;5015252;28;20483;-80
2023/01/19 08:58:42;;;;;;;15.02;6.28;;;;;;;11.19;76.08;100064.91;5011202;28;20025;-79
2023/01/19 09:01:13;;;;;;;8.68;5.55;;;;;;;11.36;75.99;100056.13;5028537;28;20029;-90
2023/01/19 09:03:39;;;;;;;13.40;6.47;;;;;;;11.42;75.52;100071.31;5013283;28;20025;-83
2023/01/19 09:06:08;;;;;;;12.75;6.55;;;;;;;11.47;75.30;100055.47;5011584;28;20032;-85
2023/01/19 09:08:33;;;;;;;16.42;6.68;;;;;;;11.61;75.71;100086.56;5028257;28;20029;-87
2023/01/19 09:10:59;;;;;;;23.92;6.70;;;;;;;11.58;75.06;100060.81;5012366;28;20033;-90
2023/01/19 09:13:24;;;;;;;10.73;5.50;;;;;;;11.60;75.96;100069.34;5025639;28;20026;-85
2023/01/19 09:15:50;;;;;;;12.65;5.63;;;;;;;11.67;75.54;100080.16;5028355;28;20029;-88
2023/01/19 09:18:18;;;;;;;12.25;5.35;;;;;;;11.74;74.84;100068.50;5011923;28;20515;-88
2023/01/19 09:20:44;;;;;;;11.73;7.70;;;;;;;11.73;74.84;100059.06;5028688;28;20492;-85
2023/01/19 09:23:10;;;;;;;19.52;6.38;;;;;;;11.82;73.93;100084.44;5010879;28;20025;-88
2023/01/19 09:25:37;;;;;;;18.85;7.32;;;;;;;11.88;77.16;100078.00;5026267;28;20030;-91
2023/01/19 09:28:08;;;;;;;13.25;6.35;;;;;;;11.89;74.59;100077.91;5028712;28;20078;-83
2023/01/19 09:30:35;;;;;;;14.18;4.93;;;;;;;12.09;73.77;100097.38;5011389;28;20029;-89
2023/01/19 09:33:05;;;;;;;18.90;6.00;;;;;;;12.08;72.41;100085.34;5020789;28;20030;-92
2023/01/19 09:35:33;;;;;;;8.88;5.75;;;;;;;12.04;72.18;100094.28;5012423;28;20488;-96
2023/01/19 09:37:59;;;;;;;12.65;5.82;;;;;;;12.00;72.74;100105.78;5019146;28;20048;-95
2023/01/19 09:40:25;;;;;;;18.73;6.80;;;;;;;11.75;73.20;100055.44;5017284;28;20485;-92
2023/01/19 09:42:55;;;;;;;13.77;6.18;;;;;;;11.93;73.54;100075.97;5012073;28;20033;-96
2023/01/19 09:45:44;;;;;;;14.60;5.93;;;;;;;11.94;72.65;100068.09;5028614;28;20496;-90
2023/01/19 09:48:31;;;;;;;10.70;7.05;;;;;;;11.83;73.13;100048.97;4991300;28;20050;-93
2023/01/19 09:50:59;;;;;;;14.65;6.15;;;;;;;12.05;72.91;100086.38;5019799;28;20543;-86
2023/01/19 09:53:44;;;;;;;15.48;6.82;;;;;;;12.11;73.04;100100.75;5006892;28;20080;-92
2023/01/19 09:56:13;;;;;;;12.93;6.18;;;;;;;12.05;73.48;100091.56;5012357;28;20493;-88
2023/01/19 09:58:39;;;;;;;18.13;6.35;;;;;;;12.17;74.33;100100.31;5015235;28;20032;-91
2023/01/19 10:01:27;;;;;;;12.63;5.72;;;;;;;12.01;74.34;100051.22;5000758;28;20041;-89
2023/01/19 10:04:18;;;;;;;18.90;7.22;;;;;;;12.32;73.99;100076.03;5017906;28;20025;-94
2023/01/19 10:06:43;;;;;;;13.95;5.35;;;;;;;12.49;73.99;100084.47;5004046;28;20357;-88
2023/01/19 10:09:32;;;;;;;10.18;5.78;;;;;;;12.33;73.61;100020.63;5023787;28;20037;-86
2023/01/19 10:12:02;;;;;;;5.75;3.90;;;;;;;12.73;72.89;100067.28;4998284;28;20535;-83
2023/01/19 10:14:39;;;;;;;10.48;4.80;;;;;;;12.74;70.99;100053.34;5011477;28;20501;-83
2023/01/19 10:17:08;;;;;;;9.77;3.83;;;;;;;12.87;71.65;100068.94;5010334;28;20069;-86
2023/01/19 10:19:36;;;;;;;14.85;4.40;;;;;;;12.93;71.49;100071.13;5031280;28;20036;-87
2023/01/19 10:22:06;;;;;;;19.08;4.32;;;;;;;12.86;71.20;100060.31;5016998;28;20037;-85
2023/01/19 10:24:37;;;;;;;12.50;4.80;;;;;;;12.83;71.39;100057.94;5014201;28;20033;-85
2023/01/19 10:27:08;;;;;;;15.73;5.95;;;;;;;12.90;71.10;100072.19;5009620;28;20533;-86
2023/01/19 10:29:36;;;;;;;14.00;5.28;;;;;;;12.88;70.31;100058.47;5015229;28;20048;-89
2023/01/19 10:32:07;;;;;;;12.50;4.57;;;;;;;13.08;70.77;100082.25;5031527;28;20424;-85
2023/01/19 10:34:33;;;;;;;17.38;7.47;;;;;;;13.11;70.17;100074.25;5034006;28;20025;-92
2023/01/19 10:37:04;;;;;;;13.88;5.40;;;;;;;13.16;70.35;100079.94;5013046;28;20034;-89
2023/01/19 10:39:30;;;;;;;18.30;5.28;;;;;;;13.24;69.66;100076.88;4996446;28;20029;-92
2023/01/19 10:42:05;;;;;;;9.35;6.30;;;;;;;13.33;69.71;100077.06;5033297;28;20052;-93
2023/01/19 10:44:34;;;;;;;18.58;5.20;;;;;;;13.35;70.32;100070.00;4998783;28;20033;-84
2023/01/19 10:47:00;;;;;;;13.93;5.93;;;;;;;13.43;69.87;100083.28;5011264;28;20026;-91
2023/01/19 10:49:37;;;;;;;13.80;4.72;;;;;;;13.49;69.43;100075.06;5016345;28;20122;-88
2023/01/19 10:52:03;;;;;;;10.82;4.53;;;;;;;13.58;69.34;100077.97;5012685;28;20026;-87
2023/01/19 10:54:29;;;;;;;26.15;6.45;;;;;;;13.57;68.85;100079.75;4990136;28;20026;-92
2023/01/19 10:56:57;;;;;;;9.77;5.15;;;;;;;13.67;68.91;100088.56;5016480;28;20025;-91
2023/01/19 10:59:43;;;;;;;10.15;6.07;;;;;;;13.62;68.99;100076.81;5012679;28;20036;-85
2023/01/19 11:02:20;;;;;;;8.38;4.35;;;;;;;13.81;68.58;100097.16;5013753;28;20037;-91
2023/01/19 11:04:51;;;;;;;9.23;3.85;;;;;;;13.86;68.27;100097.63;5008473;28;20523;-90
2023/01/19 11:07:20;;;;;;;7.43;4.50;;;;;;;13.97;68.19;100108.97;5045606;28;20132;-86
2023/01/19 11:09:46;;;;;;;14.68;5.20;;;;;;;13.96;67.80;100101.25;5032203;28;20029;-86
2023/01/19 11:12:24;;;;;;;20.23;4.97;;;;;;;13.89;68.01;100094.84;5015497;28;20030;-87
2023/01/19 11:14:50;;;;;;;10.88;5.50;;;;;;;14.00;68.29;100118.31;4999194;28;20117;-89
2023/01/19 11:17:21;;;;;;;15.77;5.78;;;;;;;14.06;67.89;100113.50;4999387;28;20046;-86
2023/01/19 11:19:58;;;;;;;13.70;5.93;;;;;;;14.17;67.96;100107.53;5014538;28;20163;-84
2023/01/19 11:22:29;;;;;;;11.73;5.25;;;;;;;14.27;67.51;100120.72;5014636;28;20033;-86
2023/01/19 11:25:02;;;;;;;19.35;6.38;;;;;;;14.31;67.93;100111.72;4996918;28;20022;-80
2023/01/19 11:27:27;;;;;;;10.35;4.28;;;;;;;14.25;66.99;100086.16;5010067;28;20040;-91
2023/01/19 11:30:00;;;;;;;19.42;3.15;;;;;;;14.56;65.69;100106.44;5016102;28;20093;-93
2023/01/19 11:32:26;;;;;;;14.82;8.93;;;;;;;14.62;66.10;100090.34;5023678;28;20037;-91
2023/01/19 11:34:52;;;;;;;13.95;5.68;;;;;;;14.63;65.96;100078.16;5016992;28;20034;-87
2023/01/19 11:37:17;;;;;;;9.05;4.30;;;;;;;14.67;65.93;100097.00;5012231;28;20037;-82
2023/01/19 11:39:50;;;;;;;7.05;3.58;;;;;;;14.68;65.74;100103.88;5030983;28;20041;-86
2023/01/19 11:42:15;;;;;;;10.10;4.22;;;;;;;14.59;65.69;100090.59;5011961;28;20045;-88
2023/01/19 11:45:10;;;;;;;18.02;4.95;;;;;;;14.64;66.48;100093.66;4994833;28;20034;-90
2023/01/19 11:47:43;;;;;;;9.55;4.05;;;;;;;14.79;66.49;100096.91;4997661;28;20053;-89
2023/01/19 11:50:08;;;;;;;14.60;5.00;;;;;;;14.80;66.13;100092.53;5024602;28;20025;-82